sensor_id;sensor_type;location;lat;lon;timestamp;P1;durP1;ratioP1;P2;durP2;ratioP2
13951;SDS011;39535;52.192;9.886;2022-12-10T00:00:40;58.97;;;24.87;;
13951;SDS011;39535;52.192;9.886;2022-12-10T00:03:08;67.53;;;24.73;;
13951;SDS011;39535;52.192;9.886;2022-12-10T00:05:34;64.03;;;25.20;;
13951;SDS011;39535;52.192;9.886;2022-12-10T00:08:02;71.00;;;26.07;;
13951;SDS011;39535;52.192;9.886;2022-12-10T00:10:28;57.57;;;24.13;;
13951;SDS011;39535;52.192;9.886;2022-12-10T00:12:55;60.47;;;23.40;;
13951;SDS011;39535;52.192;9.886;2022-12-10T00:15:21;58.77;;;23.67;;
13951;SDS011;39535;52.192;9.886;2022-12-10T00:17:47;63.63;;;23.30;;
13951;SDS011;39535;52.192;9.886;2022-12-10T00:20:15;58.87;;;23.27;;
13951;SDS011;39535;52.192;9.886;2022-12-10T00:22:42;51.83;;;22.43;;
13951;SDS011;39535;52.192;9.886;2022-12-10T00:25:08;49.93;;;21.13;;
13951;SDS011;39535;52.192;9.886;2022-12-10T00:27:35;41.70;;;20.40;;
13951;SDS011;39535;52.192;9.886;2022-12-10T00:30:01;50.83;;;21.90;;
13951;SDS011;39535;52.192;9.886;2022-12-10T00:32:28;50.10;;;20.93;;
13951;SDS011;39535;52.192;9.886;2022-12-10T00:34:54;51.13;;;23.27;;
13951;SDS011;39535;52.192;9.886;2022-12-10T00:37:22;46.03;;;21.40;;
13951;SDS011;39535;52.192;9.886;2022-12-10T00:39:49;52.87;;;22.53;;
13951;SDS011;39535;52.192;9.886;2022-12-10T00:42:15;50.10;;;21.20;;
13951;SDS011;39535;52.192;9.886;2022-12-10T00:44:41;45.80;;;20.03;;
13951;SDS011;39535;52.192;9.886;2022-12-10T00:47:08;47.13;;;21.27;;
13951;SDS011;39535;52.192;9.886;2022-12-10T00:49:34;59.90;;;23.57;;
13951;SDS011;39535;52.192;9.886;2022-12-10T00:52:01;46.37;;;20.90;;
13951;SDS011;39535;52.192;9.886;2022-12-10T00:54:29;43.57;;;20.33;;
13951;SDS011;39535;52.192;9.886;2022-12-10T00:56:55;46.73;;;20.73;;
13951;SDS011;39535;52.192;9.886;2022-12-10T00:59:22;37.70;;;19.87;;
13951;SDS011;39535;52.192;9.886;2022-12-10T01:01:48;36.67;;;18.73;;
13951;SDS011;39535;52.192;9.886;2022-12-10T01:04:16;35.00;;;19.13;;
13951;SDS011;39535;52.192;9.886;2022-12-10T01:06:44;41.83;;;19.50;;
13951;SDS011;39535;52.192;9.886;2022-12-10T01:09:13;40.70;;;19.60;;
13951;SDS011;39535;52.192;9.886;2022-12-10T01:11:42;46.90;;;24.97;;
13951;SDS011;39535;52.192;9.886;2022-12-10T01:14:12;35.83;;;20.03;;
13951;SDS011;39535;52.192;9.886;2022-12-10T01:16:40;40.10;;;19.50;;
13951;SDS011;39535;52.192;9.886;2022-12-10T01:19:07;42.40;;;20.77;;
13951;SDS011;39535;52.192;9.886;2022-12-10T01:21:34;48.30;;;20.17;;
13951;SDS011;39535;52.192;9.886;2022-12-10T01:24:01;42.57;;;19.07;;
13951;SDS011;39535;52.192;9.886;2022-12-10T01:26:30;46.90;;;20.93;;
13951;SDS011;39535;52.192;9.886;2022-12-10T01:28:59;47.70;;;21.00;;
13951;SDS011;39535;52.192;9.886;2022-12-10T01:31:27;44.40;;;21.87;;
13951;SDS011;39535;52.192;9.886;2022-12-10T01:33:55;49.40;;;20.80;;
13951;SDS011;39535;52.192;9.886;2022-12-10T01:36:22;46.20;;;19.73;;
13951;SDS011;39535;52.192;9.886;2022-12-10T01:38:51;41.50;;;20.70;;
13951;SDS011;39535;52.192;9.886;2022-12-10T01:41:18;47.00;;;19.93;;
13951;SDS011;39535;52.192;9.886;2022-12-10T01:43:51;52.10;;;20.93;;
13951;SDS011;39535;52.192;9.886;2022-12-10T01:46:24;42.90;;;20.33;;
13951;SDS011;39535;52.192;9.886;2022-12-10T01:48:51;50.53;;;22.40;;
13951;SDS011;39535;52.192;9.886;2022-12-10T01:51:19;53.73;;;22.00;;
13951;SDS011;39535;52.192;9.886;2022-12-10T01:53:46;48.67;;;23.30;;
13951;SDS011;39535;52.192;9.886;2022-12-10T01:56:15;45.70;;;21.10;;
13951;SDS011;39535;52.192;9.886;2022-12-10T01:58:42;54.70;;;22.23;;
13951;SDS011;39535;52.192;9.886;2022-12-10T02:01:11;44.20;;;20.53;;
13951;SDS011;39535;52.192;9.886;2022-12-10T02:04:01;40.47;;;19.87;;
13951;SDS011;39535;52.192;9.886;2022-12-10T02:06:43;46.70;;;19.33;;
13951;SDS011;39535;52.192;9.886;2022-12-10T02:09:13;41.13;;;20.77;;
13951;SDS011;39535;52.192;9.886;2022-12-10T02:11:46;48.47;;;20.87;;
13951;SDS011;39535;52.192;9.886;2022-12-10T02:14:23;48.93;;;21.27;;
13951;SDS011;39535;52.192;9.886;2022-12-10T02:16:55;47.97;;;20.43;;
13951;SDS011;39535;52.192;9.886;2022-12-10T02:19:29;52.27;;;20.97;;
13951;SDS011;39535;52.192;9.886;2022-12-10T02:22:07;49.07;;;20.00;;
13951;SDS011;39535;52.192;9.886;2022-12-10T02:24:35;47.33;;;20.60;;
13951;SDS011;39535;52.192;9.886;2022-12-10T02:27:03;47.43;;;21.93;;
13951;SDS011;39535;52.192;9.886;2022-12-10T02:29:35;48.70;;;21.20;;
13951;SDS011;39535;52.192;9.886;2022-12-10T02:32:03;54.23;;;22.63;;
13951;SDS011;39535;52.192;9.886;2022-12-10T02:34:34;49.30;;;21.60;;
13951;SDS011;39535;52.192;9.886;2022-12-10T02:37:04;56.03;;;23.67;;
13951;SDS011;39535;52.192;9.886;2022-12-10T02:39:35;55.97;;;21.07;;
13951;SDS011;39535;52.192;9.886;2022-12-10T02:42:06;54.53;;;23.03;;
13951;SDS011;39535;52.192;9.886;2022-12-10T02:44:36;51.10;;;21.20;;
13951;SDS011;39535;52.192;9.886;2022-12-10T02:47:06;51.77;;;22.57;;
13951;SDS011;39535;52.192;9.886;2022-12-10T02:49:34;50.33;;;22.00;;
13951;SDS011;39535;52.192;9.886;2022-12-10T02:52:06;43.60;;;22.00;;
13951;SDS011;39535;52.192;9.886;2022-12-10T02:54:36;53.63;;;20.80;;
13951;SDS011;39535;52.192;9.886;2022-12-10T02:57:07;54.23;;;21.10;;
13951;SDS011;39535;52.192;9.886;2022-12-10T02:59:51;43.40;;;20.50;;
13951;SDS011;39535;52.192;9.886;2022-12-10T03:02:36;39.27;;;19.80;;
13951;SDS011;39535;52.192;9.886;2022-12-10T03:05:12;40.83;;;19.93;;
13951;SDS011;39535;52.192;9.886;2022-12-10T03:07:44;48.97;;;21.40;;
13951;SDS011;39535;52.192;9.886;2022-12-10T03:10:18;45.40;;;20.43;;
13951;SDS011;39535;52.192;9.886;2022-12-10T03:12:50;47.90;;;20.70;;
13951;SDS011;39535;52.192;9.886;2022-12-10T03:15:22;45.87;;;20.50;;
13951;SDS011;39535;52.192;9.886;2022-12-10T03:17:51;48.67;;;21.27;;
13951;SDS011;39535;52.192;9.886;2022-12-10T03:20:19;47.67;;;22.63;;
13951;SDS011;39535;52.192;9.886;2022-12-10T03:22:49;45.67;;;20.73;;
13951;SDS011;39535;52.192;9.886;2022-12-10T03:25:17;57.00;;;22.17;;
13951;SDS011;39535;52.192;9.886;2022-12-10T03:27:47;51.77;;;21.73;;
13951;SDS011;39535;52.192;9.886;2022-12-10T03:30:17;49.23;;;20.77;;
13951;SDS011;39535;52.192;9.886;2022-12-10T03:32:45;47.00;;;20.67;;
13951;SDS011;39535;52.192;9.886;2022-12-10T03:35:12;52.87;;;20.93;;
13951;SDS011;39535;52.192;9.886;2022-12-10T03:37:40;47.83;;;20.60;;
13951;SDS011;39535;52.192;9.886;2022-12-10T03:40:08;47.87;;;21.00;;
13951;SDS011;39535;52.192;9.886;2022-12-10T03:42:36;45.87;;;21.27;;
13951;SDS011;39535;52.192;9.886;2022-12-10T03:45:04;45.70;;;20.93;;
13951;SDS011;39535;52.192;9.886;2022-12-10T03:47:32;46.80;;;19.50;;
13951;SDS011;39535;52.192;9.886;2022-12-10T03:50:00;44.97;;;19.23;;
13951;SDS011;39535;52.192;9.886;2022-12-10T03:52:27;45.27;;;20.17;;
13951;SDS011;39535;52.192;9.886;2022-12-10T03:54:53;53.63;;;21.13;;
13951;SDS011;39535;52.192;9.886;2022-12-10T03:57:20;52.67;;;21.30;;
13951;SDS011;39535;52.192;9.886;2022-12-10T03:59:46;39.43;;;18.03;;
13951;SDS011;39535;52.192;9.886;2022-12-10T04:02:12;43.70;;;19.73;;
13951;SDS011;39535;52.192;9.886;2022-12-10T04:04:39;46.23;;;20.97;;
13951;SDS011;39535;52.192;9.886;2022-12-10T04:07:07;46.83;;;20.70;;
13951;SDS011;39535;52.192;9.886;2022-12-10T04:09:34;52.77;;;21.30;;
13951;SDS011;39535;52.192;9.886;2022-12-10T04:12:00;41.83;;;19.23;;
13951;SDS011;39535;52.192;9.886;2022-12-10T04:14:27;44.93;;;19.70;;
13951;SDS011;39535;52.192;9.886;2022-12-10T04:17:11;41.20;;;17.53;;
13951;SDS011;39535;52.192;9.886;2022-12-10T04:19:38;39.03;;;17.93;;
13951;SDS011;39535;52.192;9.886;2022-12-10T04:22:06;37.17;;;18.13;;
13951;SDS011;39535;52.192;9.886;2022-12-10T04:24:50;38.47;;;17.77;;
13951;SDS011;39535;52.192;9.886;2022-12-10T04:27:46;38.87;;;18.73;;
13951;SDS011;39535;52.192;9.886;2022-12-10T04:30:12;39.07;;;18.03;;
13951;SDS011;39535;52.192;9.886;2022-12-10T04:32:39;34.40;;;17.40;;
13951;SDS011;39535;52.192;9.886;2022-12-10T04:35:06;39.37;;;17.63;;
13951;SDS011;39535;52.192;9.886;2022-12-10T04:37:34;40.00;;;18.73;;
13951;SDS011;39535;52.192;9.886;2022-12-10T04:40:01;47.70;;;19.83;;
13951;SDS011;39535;52.192;9.886;2022-12-10T04:42:27;35.43;;;17.73;;
13951;SDS011;39535;52.192;9.886;2022-12-10T04:44:54;36.03;;;17.87;;
13951;SDS011;39535;52.192;9.886;2022-12-10T04:47:20;40.57;;;19.53;;
13951;SDS011;39535;52.192;9.886;2022-12-10T04:49:47;34.67;;;17.70;;
13951;SDS011;39535;52.192;9.886;2022-12-10T04:52:14;36.07;;;17.43;;
13951;SDS011;39535;52.192;9.886;2022-12-10T04:54:42;36.07;;;19.40;;
13951;SDS011;39535;52.192;9.886;2022-12-10T04:57:09;35.63;;;17.40;;
13951;SDS011;39535;52.192;9.886;2022-12-10T04:59:36;38.67;;;18.53;;
13951;SDS011;39535;52.192;9.886;2022-12-10T05:02:03;45.60;;;19.37;;
13951;SDS011;39535;52.192;9.886;2022-12-10T05:04:30;40.77;;;19.53;;
13951;SDS011;39535;52.192;9.886;2022-12-10T05:06:56;36.30;;;17.60;;
13951;SDS011;39535;52.192;9.886;2022-12-10T05:09:23;44.13;;;18.07;;
13951;SDS011;39535;52.192;9.886;2022-12-10T05:11:50;34.73;;;17.70;;
13951;SDS011;39535;52.192;9.886;2022-12-10T05:14:17;35.40;;;18.27;;
13951;SDS011;39535;52.192;9.886;2022-12-10T05:16:43;35.83;;;17.23;;
13951;SDS011;39535;52.192;9.886;2022-12-10T05:19:10;33.27;;;18.30;;
13951;SDS011;39535;52.192;9.886;2022-12-10T05:21:37;39.20;;;18.23;;
13951;SDS011;39535;52.192;9.886;2022-12-10T05:24:21;36.43;;;17.77;;
13951;SDS011;39535;52.192;9.886;2022-12-10T05:26:47;34.03;;;17.57;;
13951;SDS011;39535;52.192;9.886;2022-12-10T05:29:17;32.87;;;17.60;;
13951;SDS011;39535;52.192;9.886;2022-12-10T05:31:44;34.57;;;18.10;;
13951;SDS011;39535;52.192;9.886;2022-12-10T05:34:11;39.37;;;17.37;;
13951;SDS011;39535;52.192;9.886;2022-12-10T05:36:37;33.37;;;17.63;;
13951;SDS011;39535;52.192;9.886;2022-12-10T05:39:03;38.00;;;16.53;;
13951;SDS011;39535;52.192;9.886;2022-12-10T05:41:31;30.90;;;16.13;;
13951;SDS011;39535;52.192;9.886;2022-12-10T05:44:01;36.00;;;15.93;;
13951;SDS011;39535;52.192;9.886;2022-12-10T05:46:31;38.60;;;17.00;;
13951;SDS011;39535;52.192;9.886;2022-12-10T05:48:59;36.00;;;16.77;;
13951;SDS011;39535;52.192;9.886;2022-12-10T05:51:27;32.27;;;16.63;;
13951;SDS011;39535;52.192;9.886;2022-12-10T05:53:56;33.33;;;16.37;;
13951;SDS011;39535;52.192;9.886;2022-12-10T05:56:24;34.33;;;17.47;;
13951;SDS011;39535;52.192;9.886;2022-12-10T05:58:52;42.33;;;17.63;;
13951;SDS011;39535;52.192;9.886;2022-12-10T06:01:20;34.57;;;17.37;;
13951;SDS011;39535;52.192;9.886;2022-12-10T06:03:50;31.00;;;15.50;;
13951;SDS011;39535;52.192;9.886;2022-12-10T06:06:19;39.20;;;16.53;;
13951;SDS011;39535;52.192;9.886;2022-12-10T06:08:47;31.23;;;15.43;;
13951;SDS011;39535;52.192;9.886;2022-12-10T06:11:14;40.17;;;15.33;;
13951;SDS011;39535;52.192;9.886;2022-12-10T06:13:40;36.13;;;15.83;;
13951;SDS011;39535;52.192;9.886;2022-12-10T06:16:07;30.90;;;15.53;;
13951;SDS011;39535;52.192;9.886;2022-12-10T06:18:36;31.67;;;13.63;;
13951;SDS011;39535;52.192;9.886;2022-12-10T06:21:04;32.93;;;15.10;;
13951;SDS011;39535;52.192;9.886;2022-12-10T06:23:33;34.87;;;14.30;;
13951;SDS011;39535;52.192;9.886;2022-12-10T06:26:02;27.03;;;14.13;;
13951;SDS011;39535;52.192;9.886;2022-12-10T06:28:29;34.43;;;15.37;;
13951;SDS011;39535;52.192;9.886;2022-12-10T06:30:57;33.03;;;15.10;;
13951;SDS011;39535;52.192;9.886;2022-12-10T06:33:23;30.03;;;14.70;;
13951;SDS011;39535;52.192;9.886;2022-12-10T06:35:50;30.53;;;14.57;;
13951;SDS011;39535;52.192;9.886;2022-12-10T06:38:17;30.40;;;13.90;;
13951;SDS011;39535;52.192;9.886;2022-12-10T06:40:44;29.30;;;14.20;;
13951;SDS011;39535;52.192;9.886;2022-12-10T06:43:10;30.83;;;15.30;;
13951;SDS011;39535;52.192;9.886;2022-12-10T06:45:37;29.97;;;15.67;;
13951;SDS011;39535;52.192;9.886;2022-12-10T06:48:04;26.47;;;15.37;;
13951;SDS011;39535;52.192;9.886;2022-12-10T06:50:31;34.03;;;16.47;;
13951;SDS011;39535;52.192;9.886;2022-12-10T06:52:57;32.43;;;15.90;;
13951;SDS011;39535;52.192;9.886;2022-12-10T06:55:25;33.33;;;16.53;;
13951;SDS011;39535;52.192;9.886;2022-12-10T06:57:52;34.50;;;16.17;;
13951;SDS011;39535;52.192;9.886;2022-12-10T07:00:19;35.13;;;16.47;;
13951;SDS011;39535;52.192;9.886;2022-12-10T07:02:46;27.93;;;14.70;;
13951;SDS011;39535;52.192;9.886;2022-12-10T07:05:13;22.03;;;13.20;;
13951;SDS011;39535;52.192;9.886;2022-12-10T07:07:40;26.57;;;13.93;;
13951;SDS011;39535;52.192;9.886;2022-12-10T07:10:07;31.60;;;13.90;;
13951;SDS011;39535;52.192;9.886;2022-12-10T07:12:36;28.20;;;14.63;;
13951;SDS011;39535;52.192;9.886;2022-12-10T07:15:03;29.07;;;14.83;;
13951;SDS011;39535;52.192;9.886;2022-12-10T07:17:29;34.17;;;14.77;;
13951;SDS011;39535;52.192;9.886;2022-12-10T07:19:56;29.20;;;15.07;;
13951;SDS011;39535;52.192;9.886;2022-12-10T07:22:22;27.40;;;15.00;;
13951;SDS011;39535;52.192;9.886;2022-12-10T07:24:49;29.20;;;15.53;;
13951;SDS011;39535;52.192;9.886;2022-12-10T07:27:15;29.57;;;15.63;;
13951;SDS011;39535;52.192;9.886;2022-12-10T07:29:44;26.60;;;15.00;;
13951;SDS011;39535;52.192;9.886;2022-12-10T07:32:10;34.97;;;15.83;;
13951;SDS011;39535;52.192;9.886;2022-12-10T07:34:37;23.70;;;15.07;;
13951;SDS011;39535;52.192;9.886;2022-12-10T07:37:04;27.83;;;14.97;;
13951;SDS011;39535;52.192;9.886;2022-12-10T07:39:30;26.90;;;15.43;;
13951;SDS011;39535;52.192;9.886;2022-12-10T07:41:57;26.67;;;15.93;;
13951;SDS011;39535;52.192;9.886;2022-12-10T07:44:24;26.20;;;13.80;;
13951;SDS011;39535;52.192;9.886;2022-12-10T07:46:53;22.70;;;14.33;;
13951;SDS011;39535;52.192;9.886;2022-12-10T07:49:20;18.07;;;14.27;;
13951;SDS011;39535;52.192;9.886;2022-12-10T07:51:48;33.83;;;18.13;;
13951;SDS011;39535;52.192;9.886;2022-12-10T07:54:15;29.47;;;14.70;;
13951;SDS011;39535;52.192;9.886;2022-12-10T07:56:42;19.90;;;14.00;;
13951;SDS011;39535;52.192;9.886;2022-12-10T07:59:09;29.20;;;14.80;;
13951;SDS011;39535;52.192;9.886;2022-12-10T08:01:35;27.13;;;15.60;;
13951;SDS011;39535;52.192;9.886;2022-12-10T08:04:03;29.00;;;16.00;;
13951;SDS011;39535;52.192;9.886;2022-12-10T08:06:30;26.50;;;13.67;;
13951;SDS011;39535;52.192;9.886;2022-12-10T08:08:57;24.30;;;13.30;;
13951;SDS011;39535;52.192;9.886;2022-12-10T08:11:24;29.80;;;14.13;;
13951;SDS011;39535;52.192;9.886;2022-12-10T08:13:51;25.40;;;15.17;;
13951;SDS011;39535;52.192;9.886;2022-12-10T08:16:19;25.83;;;14.90;;
13951;SDS011;39535;52.192;9.886;2022-12-10T08:18:47;28.23;;;14.93;;
13951;SDS011;39535;52.192;9.886;2022-12-10T08:21:16;28.27;;;16.20;;
13951;SDS011;39535;52.192;9.886;2022-12-10T08:23:44;29.87;;;16.73;;
13951;SDS011;39535;52.192;9.886;2022-12-10T08:26:11;26.53;;;13.80;;
13951;SDS011;39535;52.192;9.886;2022-12-10T08:28:39;25.93;;;15.87;;
13951;SDS011;39535;52.192;9.886;2022-12-10T08:31:06;28.67;;;15.00;;
13951;SDS011;39535;52.192;9.886;2022-12-10T08:33:34;30.27;;;16.60;;
13951;SDS011;39535;52.192;9.886;2022-12-10T08:36:01;25.33;;;13.87;;
13951;SDS011;39535;52.192;9.886;2022-12-10T08:38:30;30.70;;;14.30;;
13951;SDS011;39535;52.192;9.886;2022-12-10T08:40:57;23.10;;;13.77;;
13951;SDS011;39535;52.192;9.886;2022-12-10T08:43:23;28.40;;;15.07;;
13951;SDS011;39535;52.192;9.886;2022-12-10T08:45:50;28.93;;;15.13;;
13951;SDS011;39535;52.192;9.886;2022-12-10T08:48:17;25.33;;;14.93;;
13951;SDS011;39535;52.192;9.886;2022-12-10T08:50:43;28.30;;;15.57;;
13951;SDS011;39535;52.192;9.886;2022-12-10T08:53:10;26.83;;;13.97;;
13951;SDS011;39535;52.192;9.886;2022-12-10T08:55:39;36.40;;;16.53;;
13951;SDS011;39535;52.192;9.886;2022-12-10T08:58:05;24.40;;;15.03;;
13951;SDS011;39535;52.192;9.886;2022-12-10T09:00:32;31.90;;;15.27;;
13951;SDS011;39535;52.192;9.886;2022-12-10T09:02:58;31.60;;;15.17;;
13951;SDS011;39535;52.192;9.886;2022-12-10T09:05:25;29.70;;;15.37;;
13951;SDS011;39535;52.192;9.886;2022-12-10T09:07:51;27.47;;;15.57;;
13951;SDS011;39535;52.192;9.886;2022-12-10T09:10:17;32.63;;;16.40;;
13951;SDS011;39535;52.192;9.886;2022-12-10T09:12:45;30.87;;;16.10;;
13951;SDS011;39535;52.192;9.886;2022-12-10T09:15:12;33.10;;;16.50;;
13951;SDS011;39535;52.192;9.886;2022-12-10T09:17:38;32.23;;;17.73;;
13951;SDS011;39535;52.192;9.886;2022-12-10T09:20:05;30.20;;;15.83;;
13951;SDS011;39535;52.192;9.886;2022-12-10T09:22:32;34.07;;;15.37;;
13951;SDS011;39535;52.192;9.886;2022-12-10T09:25:01;29.87;;;16.03;;
13951;SDS011;39535;52.192;9.886;2022-12-10T09:27:29;27.97;;;15.70;;
13951;SDS011;39535;52.192;9.886;2022-12-10T09:29:57;32.03;;;17.57;;
13951;SDS011;39535;52.192;9.886;2022-12-10T09:32:23;32.97;;;17.47;;
13951;SDS011;39535;52.192;9.886;2022-12-10T09:34:50;36.93;;;16.87;;
13951;SDS011;39535;52.192;9.886;2022-12-10T09:37:16;32.77;;;17.53;;
13951;SDS011;39535;52.192;9.886;2022-12-10T09:39:43;37.67;;;16.10;;
13951;SDS011;39535;52.192;9.886;2022-12-10T09:42:16;35.17;;;16.83;;
13951;SDS011;39535;52.192;9.886;2022-12-10T09:44:52;31.27;;;16.07;;
13951;SDS011;39535;52.192;9.886;2022-12-10T09:47:29;29.37;;;16.00;;
13951;SDS011;39535;52.192;9.886;2022-12-10T09:50:02;36.90;;;17.07;;
13951;SDS011;39535;52.192;9.886;2022-12-10T09:52:37;30.33;;;16.23;;
13951;SDS011;39535;52.192;9.886;2022-12-10T09:55:09;35.57;;;16.77;;
13951;SDS011;39535;52.192;9.886;2022-12-10T09:57:40;38.97;;;17.87;;
13951;SDS011;39535;52.192;9.886;2022-12-10T10:00:16;42.47;;;18.00;;
13951;SDS011;39535;52.192;9.886;2022-12-10T10:02:50;38.93;;;17.43;;
13951;SDS011;39535;52.192;9.886;2022-12-10T10:05:20;42.30;;;17.57;;
13951;SDS011;39535;52.192;9.886;2022-12-10T10:07:49;36.37;;;16.80;;
13951;SDS011;39535;52.192;9.886;2022-12-10T10:10:23;32.73;;;17.07;;
13951;SDS011;39535;52.192;9.886;2022-12-10T10:12:53;38.27;;;16.87;;
13951;SDS011;39535;52.192;9.886;2022-12-10T10:15:24;42.17;;;18.23;;
13951;SDS011;39535;52.192;9.886;2022-12-10T10:17:56;41.77;;;18.93;;
13951;SDS011;39535;52.192;9.886;2022-12-10T10:20:27;37.50;;;18.10;;
13951;SDS011;39535;52.192;9.886;2022-12-10T10:22:54;40.37;;;18.17;;
13951;SDS011;39535;52.192;9.886;2022-12-10T10:25:23;45.87;;;19.00;;
13951;SDS011;39535;52.192;9.886;2022-12-10T10:27:49;43.73;;;19.93;;
13951;SDS011;39535;52.192;9.886;2022-12-10T10:30:17;38.27;;;17.97;;
13951;SDS011;39535;52.192;9.886;2022-12-10T10:32:48;36.47;;;17.07;;
13951;SDS011;39535;52.192;9.886;2022-12-10T10:35:26;44.60;;;19.23;;
13951;SDS011;39535;52.192;9.886;2022-12-10T10:37:59;43.77;;;18.47;;
13951;SDS011;39535;52.192;9.886;2022-12-10T10:40:27;39.00;;;17.67;;
13951;SDS011;39535;52.192;9.886;2022-12-10T10:42:56;42.10;;;18.83;;
13951;SDS011;39535;52.192;9.886;2022-12-10T10:45:32;45.00;;;18.10;;
13951;SDS011;39535;52.192;9.886;2022-12-10T10:48:05;48.93;;;20.00;;
13951;SDS011;39535;52.192;9.886;2022-12-10T10:50:40;48.37;;;19.87;;
13951;SDS011;39535;52.192;9.886;2022-12-10T10:53:21;47.43;;;21.90;;
13951;SDS011;39535;52.192;9.886;2022-12-10T10:55:52;44.97;;;19.33;;
13951;SDS011;39535;52.192;9.886;2022-12-10T10:58:20;52.47;;;19.97;;
13951;SDS011;39535;52.192;9.886;2022-12-10T11:00:55;50.00;;;20.73;;
13951;SDS011;39535;52.192;9.886;2022-12-10T11:03:24;48.90;;;18.67;;
13951;SDS011;39535;52.192;9.886;2022-12-10T11:05:53;56.23;;;23.67;;
13951;SDS011;39535;52.192;9.886;2022-12-10T11:08:21;60.13;;;24.57;;
13951;SDS011;39535;52.192;9.886;2022-12-10T11:10:51;53.10;;;20.67;;
13951;SDS011;39535;52.192;9.886;2022-12-10T11:13:27;46.00;;;20.57;;
13951;SDS011;39535;52.192;9.886;2022-12-10T11:15:56;45.07;;;20.07;;
13951;SDS011;39535;52.192;9.886;2022-12-10T11:18:29;52.03;;;21.27;;
13951;SDS011;39535;52.192;9.886;2022-12-10T11:20:59;49.07;;;19.83;;
13951;SDS011;39535;52.192;9.886;2022-12-10T11:23:28;40.70;;;18.23;;
13951;SDS011;39535;52.192;9.886;2022-12-10T11:25:57;42.33;;;17.23;;
13951;SDS011;39535;52.192;9.886;2022-12-10T11:28:33;42.77;;;19.27;;
13951;SDS011;39535;52.192;9.886;2022-12-10T11:31:13;43.53;;;19.47;;
13951;SDS011;39535;52.192;9.886;2022-12-10T11:33:51;41.43;;;19.50;;
13951;SDS011;39535;52.192;9.886;2022-12-10T11:36:31;50.57;;;19.20;;
13951;SDS011;39535;52.192;9.886;2022-12-10T11:39:06;39.37;;;17.90;;
13951;SDS011;39535;52.192;9.886;2022-12-10T11:41:42;41.17;;;18.83;;
13951;SDS011;39535;52.192;9.886;2022-12-10T11:44:16;46.83;;;18.10;;
13951;SDS011;39535;52.192;9.886;2022-12-10T11:46:55;37.47;;;17.87;;
13951;SDS011;39535;52.192;9.886;2022-12-10T11:49:31;38.43;;;17.23;;
13951;SDS011;39535;52.192;9.886;2022-12-10T11:52:10;39.53;;;18.17;;
13951;SDS011;39535;52.192;9.886;2022-12-10T11:54:47;35.00;;;17.13;;
13951;SDS011;39535;52.192;9.886;2022-12-10T11:57:26;36.63;;;18.17;;
13951;SDS011;39535;52.192;9.886;2022-12-10T12:00:02;44.63;;;19.07;;
13951;SDS011;39535;52.192;9.886;2022-12-10T12:02:46;35.63;;;17.20;;
13951;SDS011;39535;52.192;9.886;2022-12-10T12:08:29;37.77;;;18.13;;
13951;SDS011;39535;52.192;9.886;2022-12-10T12:11:09;39.47;;;18.70;;
13951;SDS011;39535;52.192;9.886;2022-12-10T12:13:47;37.10;;;18.10;;
13951;SDS011;39535;52.192;9.886;2022-12-10T12:16:23;35.93;;;17.47;;
13951;SDS011;39535;52.192;9.886;2022-12-10T12:18:57;41.13;;;19.63;;
13951;SDS011;39535;52.192;9.886;2022-12-10T12:21:26;34.57;;;17.10;;
13951;SDS011;39535;52.192;9.886;2022-12-10T12:23:55;41.87;;;17.83;;
13951;SDS011;39535;52.192;9.886;2022-12-10T12:26:27;40.97;;;18.13;;
13951;SDS011;39535;52.192;9.886;2022-12-10T12:28:59;38.03;;;18.53;;
13951;SDS011;39535;52.192;9.886;2022-12-10T12:31:31;40.80;;;18.63;;
13951;SDS011;39535;52.192;9.886;2022-12-10T12:34:02;45.03;;;19.40;;
13951;SDS011;39535;52.192;9.886;2022-12-10T12:36:36;36.37;;;17.27;;
13951;SDS011;39535;52.192;9.886;2022-12-10T12:39:07;39.60;;;19.13;;
13951;SDS011;39535;52.192;9.886;2022-12-10T12:41:44;34.20;;;17.93;;
13951;SDS011;39535;52.192;9.886;2022-12-10T12:44:19;39.23;;;18.63;;
13951;SDS011;39535;52.192;9.886;2022-12-10T12:46:55;30.00;;;17.27;;
13951;SDS011;39535;52.192;9.886;2022-12-10T12:49:24;29.83;;;17.43;;
13951;SDS011;39535;52.192;9.886;2022-12-10T12:51:54;28.73;;;17.30;;
13951;SDS011;39535;52.192;9.886;2022-12-10T12:54:27;30.23;;;16.57;;
13951;SDS011;39535;52.192;9.886;2022-12-10T12:56:56;25.30;;;16.63;;
13951;SDS011;39535;52.192;9.886;2022-12-10T12:59:34;24.23;;;16.50;;
13951;SDS011;39535;52.192;9.886;2022-12-10T13:02:14;26.40;;;15.70;;
13951;SDS011;39535;52.192;9.886;2022-12-10T13:04:47;24.63;;;16.93;;
13951;SDS011;39535;52.192;9.886;2022-12-10T13:07:31;23.63;;;15.33;;
13951;SDS011;39535;52.192;9.886;2022-12-10T13:12:52;30.13;;;17.17;;
13951;SDS011;39535;52.192;9.886;2022-12-10T13:15:33;30.53;;;17.17;;
13951;SDS011;39535;52.192;9.886;2022-12-10T13:18:03;25.10;;;16.20;;
13951;SDS011;39535;52.192;9.886;2022-12-10T13:20:46;27.70;;;16.57;;
13951;SDS011;39535;52.192;9.886;2022-12-10T13:23:30;22.37;;;14.93;;
13951;SDS011;39535;52.192;9.886;2022-12-10T13:26:01;23.80;;;15.67;;
13951;SDS011;39535;52.192;9.886;2022-12-10T13:28:29;21.57;;;15.90;;
13951;SDS011;39535;52.192;9.886;2022-12-10T13:31:17;21.87;;;15.57;;
13951;SDS011;39535;52.192;9.886;2022-12-10T13:33:48;24.80;;;16.57;;
13951;SDS011;39535;52.192;9.886;2022-12-10T13:36:19;28.70;;;17.13;;
13951;SDS011;39535;52.192;9.886;2022-12-10T13:38:54;28.40;;;16.97;;
13951;SDS011;39535;52.192;9.886;2022-12-10T13:41:24;25.57;;;15.07;;
13951;SDS011;39535;52.192;9.886;2022-12-10T13:47:04;25.10;;;17.73;;
13951;SDS011;39535;52.192;9.886;2022-12-10T13:49:49;27.33;;;17.37;;
13951;SDS011;39535;52.192;9.886;2022-12-10T13:52:19;30.73;;;18.23;;
13951;SDS011;39535;52.192;9.886;2022-12-10T13:54:59;23.50;;;16.73;;
13951;SDS011;39535;52.192;9.886;2022-12-10T13:57:55;22.73;;;16.67;;
13951;SDS011;39535;52.192;9.886;2022-12-10T14:00:32;27.10;;;17.03;;
13951;SDS011;39535;52.192;9.886;2022-12-10T14:03:09;30.80;;;18.80;;
13951;SDS011;39535;52.192;9.886;2022-12-10T14:06:00;26.80;;;17.73;;
13951;SDS011;39535;52.192;9.886;2022-12-10T14:08:38;31.23;;;20.50;;
13951;SDS011;39535;52.192;9.886;2022-12-10T14:11:10;38.27;;;22.83;;
13951;SDS011;39535;52.192;9.886;2022-12-10T14:13:46;29.03;;;17.73;;
13951;SDS011;39535;52.192;9.886;2022-12-10T14:16:18;30.43;;;18.23;;
13951;SDS011;39535;52.192;9.886;2022-12-10T14:18:50;32.33;;;20.47;;
13951;SDS011;39535;52.192;9.886;2022-12-10T14:21:19;30.70;;;18.60;;
13951;SDS011;39535;52.192;9.886;2022-12-10T14:23:47;28.10;;;19.40;;
13951;SDS011;39535;52.192;9.886;2022-12-10T14:26:15;41.33;;;23.47;;
13951;SDS011;39535;52.192;9.886;2022-12-10T14:28:43;46.53;;;25.60;;
13951;SDS011;39535;52.192;9.886;2022-12-10T14:31:14;41.50;;;26.60;;
13951;SDS011;39535;52.192;9.886;2022-12-10T14:33:44;32.03;;;20.03;;
13951;SDS011;39535;52.192;9.886;2022-12-10T14:36:14;29.10;;;19.67;;
13951;SDS011;39535;52.192;9.886;2022-12-10T14:38:44;32.50;;;20.80;;
13951;SDS011;39535;52.192;9.886;2022-12-10T14:41:13;32.57;;;20.80;;
13951;SDS011;39535;52.192;9.886;2022-12-10T14:43:43;36.77;;;22.60;;
13951;SDS011;39535;52.192;9.886;2022-12-10T14:46:14;37.67;;;23.73;;